createdAt,value
2019-04-16T00:00:35.515Z,34.03
2019-04-16T00:03:04.884Z,32.90
2019-04-16T00:05:38.687Z,31.90
2019-04-16T00:08:26.685Z,28.17
2019-04-16T00:11:00.768Z,32.10
2019-04-16T00:13:31.864Z,34.07
2019-04-16T00:16:03.882Z,33.33
2019-04-16T00:18:33.390Z,29.70
2019-04-16T00:21:06.426Z,32.43
2019-04-16T00:23:42.691Z,31.50
2019-04-16T00:26:12.159Z,32.63
2019-04-16T00:28:41.632Z,35.13
2019-04-16T00:31:11.054Z,32.03
2019-04-16T00:33:42.832Z,28.90
2019-04-16T00:36:11.583Z,33.90
2019-04-16T00:38:41.316Z,28.80
2019-04-16T00:41:10.899Z,32.50
2019-04-16T00:43:43.984Z,31.77
2019-04-16T00:46:12.547Z,31.03
2019-04-16T00:48:41.971Z,28.13
2019-04-16T00:51:11.540Z,30.87
2019-04-16T00:53:40.947Z,33.80
2019-04-16T00:56:10.410Z,33.40
2019-04-16T00:58:39.820Z,31.77
2019-04-16T01:01:10.472Z,32.13
2019-04-16T01:03:39.919Z,35.07
2019-04-16T01:06:09.458Z,33.37
2019-04-16T01:08:38.883Z,35.77
2019-04-16T01:11:08.456Z,30.67
2019-04-16T01:13:38.111Z,32.73
2019-04-16T01:16:07.596Z,40.07
2019-04-16T01:18:38.852Z,33.90
2019-04-16T01:21:08.075Z,29.27
2019-04-16T01:23:37.512Z,31.10
2019-04-16T01:26:08.152Z,29.17
2019-04-16T01:28:39.180Z,34.20
2019-04-16T01:31:26.847Z,33.60
2019-04-16T01:33:57.886Z,34.90
2019-04-16T01:36:34.457Z,31.20
2019-04-16T01:39:15.878Z,30.80
2019-04-16T01:41:38.070Z,29.80
2019-04-16T01:44:07.460Z,26.63
2019-04-16T01:46:37.982Z,32.20
2019-04-16T01:49:10.266Z,27.77
2019-04-16T01:51:39.620Z,28.83
2019-04-16T01:54:09.040Z,30.57
2019-04-16T01:56:38.433Z,30.80
2019-04-16T01:59:07.872Z,27.50
2019-04-16T02:01:37.355Z,31.57
2019-04-16T02:04:06.844Z,32.90
2019-04-16T02:06:37.004Z,34.87
2019-04-16T02:09:06.388Z,32.40
2019-04-16T02:11:35.880Z,32.80
2019-04-16T02:14:05.678Z,33.63
2019-04-16T02:16:35.100Z,32.00
2019-04-16T02:19:04.532Z,34.13
2019-04-16T02:21:33.962Z,32.67
2019-04-16T02:24:03.307Z,33.93
2019-04-16T02:26:32.753Z,30.17
2019-04-16T02:29:02.241Z,28.23
2019-04-16T02:31:31.668Z,26.37
2019-04-16T02:34:01.181Z,30.03
2019-04-16T02:36:30.662Z,32.90
2019-04-16T02:39:00.186Z,31.60
2019-04-16T02:41:29.626Z,31.53
2019-04-16T02:43:59.066Z,30.17
2019-04-16T02:46:32.104Z,33.90
2019-04-16T02:48:59.610Z,33.03
2019-04-16T02:51:39.900Z,35.93
2019-04-16T02:54:32.512Z,31.80
2019-04-16T02:57:15.118Z,31.27
2019-04-16T02:59:47.845Z,34.73
2019-04-16T03:02:28.309Z,36.03
2019-04-16T03:04:59.442Z,33.67
2019-04-16T03:07:28.841Z,31.63
2019-04-16T03:10:01.654Z,36.07
2019-04-16T03:12:29.421Z,34.43
2019-04-16T03:15:01.305Z,35.70
2019-04-16T03:17:39.623Z,32.70
2019-04-16T03:20:12.665Z,31.57
2019-04-16T03:22:42.193Z,33.63
2019-04-16T03:25:13.870Z,36.00
2019-04-16T03:27:42.763Z,32.63
2019-04-16T03:30:12.679Z,31.43
2019-04-16T03:32:51.915Z,33.87
2019-04-16T03:35:25.433Z,32.93
2019-04-16T03:37:52.366Z,32.23
2019-04-16T03:40:25.455Z,31.60
2019-04-16T03:42:52.944Z,40.97
2019-04-16T03:45:22.353Z,37.53
2019-04-16T03:47:52.391Z,35.63
2019-04-16T03:50:21.998Z,31.47
2019-04-16T03:52:51.472Z,36.47
2019-04-16T03:55:25.050Z,32.30
2019-04-16T03:57:52.077Z,34.93
2019-04-16T04:00:21.521Z,35.27
2019-04-16T04:02:54.232Z,38.87
2019-04-16T04:05:22.048Z,33.53
2019-04-16T04:07:51.469Z,37.00
2019-04-16T04:10:30.496Z,37.00
2019-04-16T04:12:51.936Z,39.37
2019-04-16T04:15:25.818Z,37.23
2019-04-16T04:17:52.572Z,35.63
2019-04-16T04:20:22.034Z,36.70
2019-04-16T04:22:51.527Z,38.43
2019-04-16T04:25:20.965Z,37.47
2019-04-16T04:27:50.379Z,37.00
2019-04-16T04:30:21.511Z,32.87
2019-04-16T04:32:51.006Z,38.90
2019-04-16T04:35:22.174Z,32.70
2019-04-16T04:37:51.792Z,37.13
2019-04-16T04:40:21.259Z,36.90
2019-04-16T04:42:51.770Z,35.33
2019-04-16T04:45:21.209Z,36.73
2019-04-16T04:47:51.730Z,40.45
2019-04-16T04:50:21.888Z,35.67
2019-04-16T04:52:51.347Z,37.83
2019-04-16T04:55:23.386Z,39.53
2019-04-16T04:57:51.785Z,33.40
2019-04-16T05:00:21.271Z,38.20
2019-04-16T05:02:50.730Z,35.20
2019-04-16T05:05:27.643Z,47.33
2019-04-16T05:07:59.720Z,38.10
2019-04-16T05:10:28.080Z,48.70
2019-04-16T05:12:57.467Z,40.73
2019-04-16T05:15:29.331Z,45.05
2019-04-16T05:17:57.987Z,35.20
2019-04-16T05:20:29.802Z,44.48
2019-04-16T05:22:58.542Z,39.27
2019-04-16T05:25:33.022Z,34.97
2019-04-16T05:27:59.080Z,36.40
2019-04-16T05:30:29.607Z,40.00
2019-04-16T05:32:59.032Z,43.50
2019-04-16T05:35:28.416Z,37.03
2019-04-16T05:38:01.022Z,45.40
2019-04-16T05:40:34.321Z,40.07
2019-04-16T05:43:01.507Z,42.93
2019-04-16T05:45:30.980Z,41.00
2019-04-16T05:48:03.492Z,52.73
2019-04-16T05:50:33.037Z,35.07
2019-04-16T05:53:05.443Z,44.40
2019-04-16T05:55:36.971Z,51.97
2019-04-16T05:58:06.456Z,53.20
2019-04-16T06:00:38.619Z,39.93
2019-04-16T06:03:08.745Z,40.50
2019-04-16T06:05:38.382Z,46.40
2019-04-16T06:08:11.396Z,48.00
2019-04-16T06:10:41.047Z,52.87
2019-04-16T06:13:28.360Z,43.23
2019-04-16T06:16:15.508Z,40.80
2019-04-16T06:18:55.217Z,47.67
2019-04-16T06:21:38.480Z,36.60
2019-04-16T06:24:24.364Z,37.90
2019-04-16T06:27:07.701Z,35.33
2019-04-16T06:29:38.922Z,36.70
2019-04-16T06:32:28.029Z,44.47
2019-04-16T06:35:16.815Z,37.40
2019-04-16T06:38:06.450Z,42.03
2019-04-16T06:40:43.236Z,45.43
2019-04-16T06:43:27.423Z,43.93
2019-04-16T06:46:09.419Z,47.60
2019-04-16T06:48:45.594Z,42.43
2019-04-16T06:51:13.205Z,42.40
2019-04-16T06:53:54.000Z,55.63
2019-04-16T06:56:41.109Z,50.70
2019-04-16T06:59:30.419Z,42.40
2019-04-16T07:02:04.618Z,57.20
2019-04-16T07:04:38.671Z,43.13
2019-04-16T07:07:37.912Z,43.70
2019-04-16T07:10:01.390Z,41.57
2019-04-16T07:12:30.842Z,48.40
2019-04-16T07:15:00.861Z,49.20
2019-04-16T07:17:33.683Z,42.27
2019-04-16T07:20:04.605Z,45.33
2019-04-16T07:22:34.562Z,44.20
2019-04-16T07:25:06.656Z,41.80
2019-04-16T07:27:42.604Z,39.47
2019-04-16T07:30:13.777Z,46.28
2019-04-16T07:32:44.967Z,44.13
2019-04-16T07:35:19.234Z,42.53
2019-04-16T07:37:52.684Z,47.67
2019-04-16T07:40:40.792Z,50.77
2019-04-16T07:43:24.582Z,45.85
2019-04-16T07:46:10.732Z,46.40
2019-04-16T07:48:44.687Z,41.73
2019-04-16T07:51:30.486Z,43.77
2019-04-16T07:54:13.513Z,39.30
2019-04-16T07:56:44.780Z,43.70
2019-04-16T07:59:14.202Z,42.70
2019-04-16T08:01:44.097Z,38.83
2019-04-16T08:04:19.075Z,41.18
2019-04-16T08:06:47.207Z,42.30
2019-04-16T08:09:16.932Z,42.50
2019-04-16T08:11:46.495Z,48.10
2019-04-16T08:14:15.928Z,42.00
2019-04-16T08:16:47.695Z,44.67
2019-04-16T08:19:16.487Z,43.03
2019-04-16T08:21:46.018Z,45.47
2019-04-16T08:24:24.399Z,41.23
2019-04-16T08:26:52.304Z,44.67
2019-04-16T08:29:21.719Z,41.20
2019-04-16T08:31:51.178Z,40.83
2019-04-16T08:34:21.680Z,36.13
2019-04-16T08:36:51.188Z,38.53
2019-04-16T08:39:20.708Z,35.67
2019-04-16T08:41:52.545Z,34.43
2019-04-16T08:44:21.263Z,39.27
2019-04-16T08:46:50.801Z,41.40
2019-04-16T08:49:22.501Z,39.23
2019-04-16T08:51:51.345Z,37.67
2019-04-16T08:54:20.954Z,45.10
2019-04-16T08:56:50.457Z,45.33
2019-04-16T08:59:19.876Z,39.83
2019-04-16T09:01:51.397Z,37.97
2019-04-16T09:04:20.638Z,42.10
2019-04-16T09:06:50.150Z,46.77
2019-04-16T09:09:27.067Z,35.80
2019-04-16T09:11:58.132Z,40.03
2019-04-16T09:14:29.244Z,40.00
2019-04-16T09:17:12.664Z,42.00
2019-04-16T09:19:43.833Z,36.77
2019-04-16T09:22:16.769Z,39.87
2019-04-16T09:24:46.135Z,38.93
2019-04-16T09:27:28.608Z,45.73
2019-04-16T09:29:56.105Z,33.83
2019-04-16T09:32:28.440Z,35.13
2019-04-16T09:35:20.009Z,41.23
2019-04-16T09:37:53.212Z,37.00
2019-04-16T09:40:36.499Z,36.33
2019-04-16T09:43:17.563Z,38.00
2019-04-16T09:45:41.820Z,37.50
2019-04-16T09:48:11.330Z,31.83
2019-04-16T09:50:46.564Z,32.33
2019-04-16T09:53:12.322Z,30.07
2019-04-16T09:55:41.777Z,30.73
2019-04-16T09:58:12.857Z,35.33
2019-04-16T10:00:47.226Z,30.97
2019-04-16T10:03:37.684Z,31.63
2019-04-16T10:06:07.160Z,27.90
2019-04-16T10:08:36.602Z,30.87
2019-04-16T10:11:06.493Z,37.43
2019-04-16T10:13:36.523Z,33.58
2019-04-16T10:16:07.445Z,39.30
2019-04-16T10:18:36.834Z,34.17
2019-04-16T10:21:06.241Z,32.37
2019-04-16T10:23:37.438Z,35.20
2019-04-16T10:26:06.902Z,34.70
2019-04-16T10:28:43.787Z,33.63
2019-04-16T10:31:14.924Z,36.23
2019-04-16T10:33:44.467Z,36.17
2019-04-16T10:36:13.851Z,35.97
2019-04-16T10:39:01.576Z,31.50
2019-04-16T10:41:46.279Z,36.07
2019-04-16T10:44:20.423Z,36.23
2019-04-16T10:46:51.584Z,32.98
2019-04-16T10:49:22.692Z,28.57
2019-04-16T10:52:02.662Z,34.30
2019-04-16T10:54:42.724Z,31.00
2019-04-16T10:57:30.281Z,30.07
2019-04-16T11:00:05.701Z,29.90
2019-04-16T11:02:37.450Z,29.50
2019-04-16T11:05:19.295Z,29.53
2019-04-16T11:07:50.586Z,29.17
2019-04-16T11:10:20.220Z,25.60
2019-04-16T11:12:49.763Z,25.63
2019-04-16T11:15:24.734Z,27.20
2019-04-16T11:17:54.080Z,22.67
2019-04-16T11:20:23.778Z,23.83
2019-04-16T11:22:53.405Z,28.83
2019-04-16T11:25:22.943Z,22.40
2019-04-16T11:27:52.350Z,23.77
2019-04-16T11:30:23.522Z,25.83
2019-04-16T11:32:53.452Z,25.23
2019-04-16T11:35:23.267Z,29.07
2019-04-16T11:37:52.844Z,30.90
2019-04-16T11:40:22.355Z,26.53
2019-04-16T11:42:52.879Z,22.70
2019-04-16T11:45:22.378Z,24.27
2019-04-16T11:47:51.885Z,22.43
2019-04-16T11:50:21.455Z,27.63
2019-04-16T11:52:50.962Z,24.15
2019-04-16T11:55:20.443Z,25.93
2019-04-16T11:57:49.906Z,29.43
2019-04-16T12:00:35.821Z,26.50
2019-04-16T12:03:10.144Z,30.90
2019-04-16T12:05:41.474Z,25.90
2019-04-16T12:08:21.445Z,27.10
2019-04-16T12:10:58.490Z,19.07
2019-04-16T12:13:35.696Z,20.07
2019-04-16T12:16:24.373Z,25.00
2019-04-16T12:18:55.642Z,21.33
2019-04-16T12:21:41.995Z,18.73
2019-04-16T12:24:18.779Z,21.85
2019-04-16T12:26:59.924Z,22.17
2019-04-16T12:29:47.436Z,23.40
2019-04-16T12:32:26.860Z,21.03
2019-04-16T12:35:01.945Z,23.40
2019-04-16T12:37:50.859Z,21.37
2019-04-16T12:40:21.842Z,20.53
2019-04-16T12:43:14.741Z,26.23
2019-04-16T12:45:43.765Z,23.63
2019-04-16T12:48:14.897Z,17.93
2019-04-16T12:51:04.093Z,22.57
2019-04-16T12:53:47.363Z,29.30
2019-04-16T12:56:18.520Z,22.80
2019-04-16T12:58:52.571Z,29.07
2019-04-16T13:01:26.374Z,28.63
2019-04-16T13:04:00.293Z,30.50
2019-04-16T13:06:43.517Z,24.20
2019-04-16T13:09:20.196Z,25.53
2019-04-16T13:11:54.095Z,24.70
2019-04-16T13:14:27.905Z,18.17
2019-04-16T13:17:04.998Z,18.93
2019-04-16T13:19:52.595Z,23.53
2019-04-16T13:22:39.825Z,23.97
2019-04-16T13:25:16.961Z,21.00
2019-04-16T13:27:47.897Z,27.07
2019-04-16T13:30:18.380Z,24.33
2019-04-16T13:32:47.865Z,27.33
2019-04-16T13:35:17.312Z,22.23
2019-04-16T13:37:46.806Z,23.73
2019-04-16T13:40:16.976Z,19.77
2019-04-16T13:42:46.450Z,24.70
2019-04-16T13:45:25.686Z,18.20
2019-04-16T13:47:55.918Z,20.37
2019-04-16T13:50:26.038Z,23.43
2019-04-16T13:52:57.123Z,26.37
2019-04-16T13:55:30.872Z,18.83
2019-04-16T13:58:17.537Z,18.63
2019-04-16T14:00:49.456Z,17.53
2019-04-16T14:03:20.796Z,17.37
2019-04-16T14:05:51.685Z,17.80
2019-04-16T14:08:21.182Z,17.27
2019-04-16T14:10:50.643Z,15.77
2019-04-16T14:13:20.200Z,17.83
2019-04-16T14:15:49.640Z,19.63
2019-04-16T14:18:21.779Z,18.57
2019-04-16T14:20:50.209Z,17.17
2019-04-16T14:23:19.609Z,17.60
2019-04-16T14:25:49.128Z,17.27
2019-04-16T14:28:18.529Z,19.17
2019-04-16T14:30:49.307Z,20.23
2019-04-16T14:33:27.045Z,19.00
2019-04-16T14:35:56.682Z,16.40
2019-04-16T14:38:36.434Z,18.13
2019-04-16T14:41:06.066Z,19.27
2019-04-16T14:43:37.109Z,16.93
2019-04-16T14:46:08.752Z,20.10
2019-04-16T14:48:42.456Z,18.40
2019-04-16T14:51:08.764Z,18.40
2019-04-16T14:53:45.690Z,17.93
2019-04-16T14:56:32.111Z,21.23
2019-04-16T14:59:08.953Z,17.60
2019-04-16T15:01:45.802Z,18.60
2019-04-16T15:04:28.860Z,17.57
2019-04-16T15:07:02.841Z,21.43
2019-04-16T15:09:43.116Z,18.70
2019-04-16T15:12:14.182Z,17.57
2019-04-16T15:14:47.965Z,17.90
2019-04-16T15:17:21.983Z,16.63
2019-04-16T15:19:53.064Z,17.03
2019-04-16T15:22:41.886Z,20.37
2019-04-16T15:25:27.880Z,21.27
2019-04-16T15:28:01.763Z,19.33
2019-04-16T15:30:32.781Z,19.10
2019-04-16T15:33:21.787Z,15.70
2019-04-16T15:35:58.801Z,19.37
2019-04-16T15:38:41.579Z,19.33
2019-04-16T15:41:27.651Z,17.97
2019-04-16T15:44:10.662Z,29.20
2019-04-16T15:46:56.815Z,23.37
2019-04-16T15:49:30.822Z,19.37
2019-04-16T15:52:09.935Z,19.10
2019-04-16T15:54:40.223Z,19.50
2019-04-16T15:57:24.314Z,20.87
2019-04-16T15:59:55.500Z,14.70
2019-04-16T16:02:45.430Z,18.97
2019-04-16T16:05:16.858Z,19.33
2019-04-16T16:07:47.949Z,18.30
2019-04-16T16:10:19.023Z,19.70
2019-04-16T16:12:50.973Z,20.23
2019-04-16T16:15:19.621Z,22.03
2019-04-16T16:17:49.079Z,19.67
2019-04-16T16:20:18.574Z,19.80
2019-04-16T16:22:48.020Z,22.33
2019-04-16T16:25:17.535Z,19.77
2019-04-16T16:27:47.322Z,24.23
2019-04-16T16:30:17.025Z,22.53
2019-04-16T16:32:46.470Z,28.07
2019-04-16T16:35:17.787Z,29.93
2019-04-16T16:37:47.009Z,25.67
2019-04-16T16:40:16.470Z,25.17
2019-04-16T16:42:46.052Z,22.20
2019-04-16T16:45:15.641Z,23.37
2019-04-16T16:47:45.188Z,32.20
2019-04-16T16:50:14.968Z,21.13
2019-04-16T16:53:01.186Z,18.97
2019-04-16T16:55:37.999Z,23.30
2019-04-16T16:58:09.016Z,24.07
2019-04-16T17:00:46.024Z,19.83
2019-04-16T17:03:19.861Z,20.20
2019-04-16T17:05:50.047Z,23.30
2019-04-16T17:08:20.347Z,28.70
2019-04-16T17:10:49.802Z,23.33
2019-04-16T17:13:21.244Z,31.27
2019-04-16T17:15:50.170Z,30.27
2019-04-16T17:18:19.643Z,27.57
2019-04-16T17:20:50.424Z,27.47
2019-04-16T17:23:20.070Z,22.93
2019-04-16T17:25:51.039Z,22.65
2019-04-16T17:28:20.496Z,31.47
2019-04-16T17:30:49.896Z,23.80
2019-04-16T17:33:19.444Z,24.47
2019-04-16T17:35:48.958Z,24.00
2019-04-16T17:38:18.582Z,21.63
2019-04-16T17:40:58.629Z,22.57
2019-04-16T17:43:42.273Z,26.00
2019-04-16T17:46:25.390Z,29.47
2019-04-16T17:48:59.157Z,22.70
2019-04-16T17:51:32.795Z,24.70
2019-04-16T17:54:03.855Z,22.63
2019-04-16T17:56:51.832Z,27.37
2019-04-16T17:59:29.475Z,25.68
2019-04-16T18:02:01.325Z,26.53
2019-04-16T18:04:34.564Z,25.07
2019-04-16T18:07:05.659Z,22.67
2019-04-16T18:09:42.683Z,24.50
2019-04-16T18:12:22.663Z,28.83
2019-04-16T18:14:53.885Z,24.93
2019-04-16T18:17:47.161Z,25.03
2019-04-16T18:20:26.083Z,24.13
2019-04-16T18:23:02.873Z,23.60
2019-04-16T18:25:56.756Z,27.30
2019-04-16T18:28:26.150Z,21.87
2019-04-16T18:30:57.319Z,24.10
2019-04-16T18:33:31.296Z,25.63
2019-04-16T18:36:05.520Z,28.90
2019-04-16T18:38:42.574Z,25.57
2019-04-16T18:41:27.494Z,30.17
2019-04-16T18:43:59.644Z,28.03
2019-04-16T18:46:46.820Z,25.63
2019-04-16T18:49:18.212Z,26.37
2019-04-16T18:51:47.863Z,26.50
2019-04-16T18:54:17.268Z,27.30
2019-04-16T18:56:46.679Z,24.53
2019-04-16T18:59:16.121Z,24.77
2019-04-16T19:01:47.182Z,28.13
2019-04-16T19:04:16.566Z,25.53
2019-04-16T19:06:46.066Z,24.60
2019-04-16T19:09:15.580Z,25.50
2019-04-16T19:11:45.187Z,30.23
2019-04-16T19:14:14.602Z,24.70
2019-04-16T19:16:43.984Z,26.43
2019-04-16T19:19:14.616Z,28.63
2019-04-16T19:21:44.071Z,23.90
2019-04-16T19:24:13.566Z,22.40
2019-04-16T19:26:43.030Z,25.10
2019-04-16T19:29:14.816Z,26.27
2019-04-16T19:31:44.590Z,31.77
2019-04-16T19:34:14.040Z,28.17
2019-04-16T19:36:43.570Z,24.70
2019-04-16T19:39:15.184Z,28.67
2019-04-16T19:41:45.326Z,30.20
2019-04-16T19:44:14.728Z,27.07
2019-04-16T19:46:45.926Z,25.23
2019-04-16T19:49:15.274Z,27.80
2019-04-16T19:51:44.652Z,28.67
2019-04-16T19:54:14.082Z,29.82
2019-04-16T19:56:43.566Z,29.47
2019-04-16T19:59:12.999Z,28.03
2019-04-16T20:01:45.286Z,28.53
2019-04-16T20:04:15.040Z,29.77
2019-04-16T20:06:44.590Z,30.87
2019-04-16T20:09:14.045Z,30.73
2019-04-16T20:11:45.108Z,30.93
2019-04-16T20:14:14.587Z,31.23
2019-04-16T20:16:43.998Z,28.93
2019-04-16T20:19:13.430Z,33.47
2019-04-16T20:21:42.886Z,29.87
2019-04-16T20:24:12.313Z,31.00
2019-04-16T20:26:41.788Z,31.87
2019-04-16T20:29:11.209Z,30.77
2019-04-16T20:31:40.561Z,33.30
2019-04-16T20:34:12.526Z,30.63
2019-04-16T20:36:41.097Z,32.40
2019-04-16T20:39:10.534Z,31.67
2019-04-16T20:41:40.418Z,29.03
2019-04-16T20:44:09.844Z,29.40
2019-04-16T20:46:39.264Z,31.33
2019-04-16T20:49:10.593Z,26.50
2019-04-16T20:51:39.775Z,29.47
2019-04-16T20:54:12.880Z,29.67
2019-04-16T20:56:40.691Z,33.00
2019-04-16T20:59:10.281Z,33.17
2019-04-16T21:01:39.914Z,35.33
2019-04-16T21:04:09.281Z,32.50
2019-04-16T21:06:41.839Z,27.93
2019-04-16T21:09:09.697Z,32.77
2019-04-16T21:11:41.683Z,37.87
2019-04-16T21:14:11.413Z,31.00
2019-04-16T21:16:40.811Z,28.87
2019-04-16T21:19:22.079Z,27.63
2019-04-16T21:21:41.152Z,35.13
2019-04-16T21:24:13.539Z,30.77
2019-04-16T21:26:41.587Z,35.00
2019-04-16T21:29:15.451Z,32.00
2019-04-16T21:31:52.588Z,31.03
2019-04-16T21:34:24.964Z,29.03
2019-04-16T21:36:59.372Z,30.50
2019-04-16T21:39:33.433Z,28.10
2019-04-16T21:42:03.436Z,28.13
2019-04-16T21:44:33.160Z,25.27
2019-04-16T21:47:02.481Z,24.77
2019-04-16T21:49:38.990Z,25.60
2019-04-16T21:52:08.952Z,25.07
2019-04-16T21:54:39.269Z,25.63
2019-04-16T21:57:09.111Z,23.03
2019-04-16T21:59:39.795Z,25.13
2019-04-16T22:02:13.692Z,27.30
2019-04-16T22:04:42.711Z,30.37
2019-04-16T22:07:13.165Z,28.23
2019-04-16T22:09:42.652Z,28.40
2019-04-16T22:12:15.194Z,30.57
2019-04-16T22:14:43.528Z,25.63
2019-04-16T22:17:14.015Z,26.77
2019-04-16T22:19:53.835Z,27.93
2019-04-16T22:22:15.017Z,35.43
2019-04-16T22:24:45.114Z,31.63
2019-04-16T22:27:14.487Z,27.30
2019-04-16T22:29:47.256Z,31.83
2019-04-16T22:32:14.986Z,29.03
2019-04-16T22:34:44.334Z,29.53
2019-04-16T22:37:13.707Z,27.00
2019-04-16T22:39:53.788Z,31.13
2019-04-16T22:42:30.721Z,28.10
2019-04-16T22:45:17.063Z,31.60
2019-04-16T22:47:48.038Z,25.97
2019-04-16T22:50:17.555Z,34.10
2019-04-16T22:52:46.931Z,27.40
2019-04-16T22:55:16.234Z,27.30
2019-04-16T22:57:45.573Z,31.93
2019-04-16T23:00:19.243Z,29.13
2019-04-16T23:02:49.016Z,27.30
2019-04-16T23:05:18.532Z,31.90
2019-04-16T23:07:48.396Z,28.77
2019-04-16T23:10:20.842Z,32.70
2019-04-16T23:12:48.851Z,30.40
2019-04-16T23:15:18.295Z,28.67
2019-04-16T23:17:47.678Z,29.67
2019-04-16T23:20:28.553Z,34.17
2019-04-16T23:22:48.086Z,31.50
2019-04-16T23:25:17.473Z,28.97
2019-04-16T23:27:46.911Z,25.70
2019-04-16T23:30:18.457Z,29.27
2019-04-16T23:32:47.500Z,26.37
2019-04-16T23:35:16.881Z,25.23
2019-04-16T23:37:46.181Z,31.63
2019-04-16T23:40:15.507Z,37.20
2019-04-16T23:43:02.972Z,27.03
2019-04-16T23:45:37.005Z,27.23
2019-04-16T23:48:08.073Z,29.10
2019-04-16T23:50:45.704Z,27.50
2019-04-16T23:53:26.201Z,31.23
2019-04-16T23:55:57.233Z,28.40
2019-04-16T23:58:30.976Z,28.63
